createdAt,value
2022-09-15T00:01:00.996Z,100.00
2022-09-15T00:03:39.684Z,100.00
2022-09-15T00:06:08.211Z,100.00
2022-09-15T00:08:35.460Z,100.00
2022-09-15T00:11:20.839Z,100.00
2022-09-15T00:13:48.507Z,100.00
2022-09-15T00:16:15.832Z,100.00
2022-09-15T00:18:44.142Z,100.00
2022-09-15T00:21:17.830Z,100.00
2022-09-15T00:23:45.037Z,100.00
2022-09-15T00:26:15.753Z,100.00
2022-09-15T00:28:43.437Z,100.00
2022-09-15T00:31:14.564Z,100.00
2022-09-15T00:33:42.328Z,100.00
2022-09-15T00:36:11.382Z,100.00
2022-09-15T00:38:38.965Z,100.00
2022-09-15T00:41:07.860Z,100.00
2022-09-15T00:44:02.536Z,100.00
2022-09-15T00:46:35.540Z,100.00
2022-09-15T00:49:12.562Z,100.00
2022-09-15T00:51:48.510Z,100.00
2022-09-15T00:54:20.019Z,100.00
2022-09-15T00:56:49.783Z,100.00
2022-09-15T00:59:19.575Z,100.00
2022-09-15T01:01:49.165Z,100.00
2022-09-15T01:04:16.635Z,100.00
2022-09-15T01:06:56.106Z,100.00
2022-09-15T01:09:28.454Z,100.00
2022-09-15T01:11:55.532Z,100.00
2022-09-15T01:14:22.389Z,100.00
2022-09-15T01:16:55.309Z,100.00
2022-09-15T01:19:51.595Z,100.00
2022-09-15T01:22:24.396Z,100.00
2022-09-15T01:25:15.367Z,100.00
2022-09-15T01:27:54.635Z,100.00
2022-09-15T01:30:23.388Z,100.00
2022-09-15T01:33:11.683Z,100.00
2022-09-15T01:35:44.131Z,100.00
2022-09-15T01:38:48.998Z,100.00
2022-09-15T01:41:19.558Z,100.00
2022-09-15T01:44:06.520Z,100.00
2022-09-15T01:46:39.418Z,100.00
2022-09-15T01:49:11.207Z,100.00
2022-09-15T01:51:40.174Z,100.00
2022-09-15T01:54:08.910Z,100.00
2022-09-15T01:56:38.086Z,100.00
2022-09-15T01:59:05.580Z,100.00
2022-09-15T02:02:12.627Z,100.00
2022-09-15T02:04:55.902Z,100.00
2022-09-15T02:07:39.174Z,100.00
2022-09-15T02:10:30.999Z,100.00
2022-09-15T02:13:17.145Z,100.00
2022-09-15T02:15:51.769Z,100.00
2022-09-15T02:18:44.147Z,100.00
2022-09-15T02:21:24.132Z,100.00
2022-09-15T02:23:57.172Z,100.00
2022-09-15T02:26:28.805Z,100.00
2022-09-15T02:29:00.453Z,100.00
2022-09-15T02:31:29.442Z,100.00
2022-09-15T02:34:01.264Z,100.00
2022-09-15T02:36:29.524Z,100.00
2022-09-15T02:39:04.411Z,100.00
2022-09-15T02:41:33.009Z,100.00
2022-09-15T02:43:59.771Z,100.00
2022-09-15T02:46:26.689Z,100.00
2022-09-15T02:48:53.720Z,100.00
2022-09-15T02:51:20.544Z,100.00
2022-09-15T02:53:47.372Z,100.00
2022-09-15T02:56:15.759Z,100.00
2022-09-15T02:58:43.695Z,100.00
2022-09-15T03:01:15.712Z,100.00
2022-09-15T03:03:45.297Z,100.00
2022-09-15T03:06:19.949Z,100.00
2022-09-15T03:08:51.291Z,100.00
2022-09-15T03:11:20.980Z,100.00
2022-09-15T03:13:48.556Z,100.00
2022-09-15T03:16:16.559Z,100.00
2022-09-15T03:18:43.473Z,100.00
2022-09-15T03:21:13.938Z,100.00
2022-09-15T03:23:42.160Z,100.00
2022-09-15T03:26:09.574Z,100.00
2022-09-15T03:28:38.112Z,100.00
2022-09-15T03:31:06.564Z,100.00
2022-09-15T03:33:33.420Z,100.00
2022-09-15T03:36:00.568Z,100.00
2022-09-15T03:38:27.425Z,100.00
2022-09-15T03:41:03.697Z,100.00
2022-09-15T03:43:32.127Z,100.00
2022-09-15T03:45:59.389Z,100.00
2022-09-15T03:48:27.702Z,100.00
2022-09-15T03:50:54.759Z,100.00
2022-09-15T03:53:22.249Z,100.00
2022-09-15T03:55:49.920Z,100.00
2022-09-15T03:58:18.566Z,100.00
2022-09-15T04:00:46.164Z,100.00
2022-09-15T04:03:13.869Z,100.00
2022-09-15T04:05:42.197Z,100.00
2022-09-15T04:08:12.524Z,100.00
2022-09-15T04:10:40.723Z,100.00
2022-09-15T04:13:08.609Z,100.00
2022-09-15T04:15:35.453Z,100.00
2022-09-15T04:18:02.635Z,100.00
2022-09-15T04:20:29.705Z,100.00
2022-09-15T04:22:56.493Z,100.00
2022-09-15T04:25:24.234Z,100.00
2022-09-15T04:27:51.228Z,100.00
2022-09-15T04:30:18.069Z,100.00
2022-09-15T04:32:44.860Z,100.00
2022-09-15T04:35:12.333Z,100.00
2022-09-15T04:37:39.349Z,100.00
2022-09-15T04:40:06.740Z,100.00
2022-09-15T04:42:33.732Z,100.00
2022-09-15T04:45:00.513Z,100.00
2022-09-15T04:47:27.515Z,100.00
2022-09-15T04:49:54.540Z,100.00
2022-09-15T04:52:21.328Z,100.00
2022-09-15T04:54:48.127Z,100.00
2022-09-15T04:57:15.164Z,100.00
2022-09-15T04:59:41.952Z,100.00
2022-09-15T05:02:08.994Z,100.00
2022-09-15T05:04:36.043Z,100.00
2022-09-15T05:07:02.925Z,100.00
2022-09-15T05:09:31.044Z,100.00
2022-09-15T05:11:58.156Z,100.00
2022-09-15T05:14:24.948Z,100.00
2022-09-15T05:16:51.817Z,100.00
2022-09-15T05:19:18.811Z,100.00
2022-09-15T05:21:45.557Z,100.00
2022-09-15T05:24:12.369Z,100.00
2022-09-15T05:26:39.574Z,100.00
2022-09-15T05:29:06.395Z,100.00
2022-09-15T05:31:34.034Z,100.00
2022-09-15T05:34:03.211Z,100.00
2022-09-15T05:36:30.758Z,100.00
2022-09-15T05:38:58.121Z,100.00
2022-09-15T05:41:26.731Z,100.00
2022-09-15T05:43:55.314Z,100.00
2022-09-15T05:46:22.661Z,100.00
2022-09-15T05:48:49.797Z,100.00
2022-09-15T05:51:16.591Z,100.00
2022-09-15T05:53:43.367Z,100.00
2022-09-15T05:56:13.026Z,100.00
2022-09-15T05:58:42.066Z,98.52
2022-09-15T06:01:13.614Z,95.59
2022-09-15T06:03:40.832Z,92.92
2022-09-15T06:06:07.877Z,94.86
2022-09-15T06:08:37.239Z,89.10
2022-09-15T06:11:16.707Z,89.44
2022-09-15T06:13:44.991Z,87.29
2022-09-15T06:16:15.140Z,88.46
2022-09-15T06:18:42.279Z,85.43
2022-09-15T06:21:21.717Z,83.07
2022-09-15T06:23:55.690Z,82.27
2022-09-15T06:26:23.627Z,83.06
2022-09-15T06:28:53.078Z,87.18
2022-09-15T06:31:20.559Z,92.48
2022-09-15T06:33:51.496Z,98.36
2022-09-15T06:36:20.439Z,100.00
2022-09-15T06:38:48.015Z,100.00
2022-09-15T06:41:15.843Z,100.00
2022-09-15T06:43:43.995Z,99.62
2022-09-15T06:46:14.955Z,100.00
2022-09-15T06:48:44.309Z,100.00
2022-09-15T06:51:17.146Z,100.00
2022-09-15T06:53:44.811Z,100.00
2022-09-15T06:56:14.848Z,100.00
2022-09-15T06:58:42.771Z,100.00
2022-09-15T07:01:13.026Z,100.00
2022-09-15T07:03:42.601Z,100.00
2022-09-15T07:06:11.928Z,100.00
2022-09-15T07:08:39.759Z,100.00
2022-09-15T07:11:07.207Z,100.00
2022-09-15T07:13:34.872Z,100.00
2022-09-15T07:16:05.901Z,100.00
2022-09-15T07:18:33.272Z,100.00
2022-09-15T07:21:03.204Z,100.00
2022-09-15T07:23:30.366Z,100.00
2022-09-15T07:26:17.798Z,100.00
2022-09-15T07:28:48.075Z,100.00
2022-09-15T07:31:17.115Z,100.00
2022-09-15T07:33:44.266Z,100.00
2022-09-15T07:36:11.767Z,93.35
2022-09-15T07:38:42.200Z,88.77
2022-09-15T07:41:21.157Z,86.53
2022-09-15T07:43:49.719Z,83.87
2022-09-15T07:46:17.647Z,80.27
2022-09-15T07:48:45.928Z,74.86
2022-09-15T07:51:13.878Z,74.61
2022-09-15T07:53:40.991Z,69.16
2022-09-15T07:56:08.206Z,70.42
2022-09-15T07:58:35.297Z,74.34
2022-09-15T08:01:07.308Z,72.24
2022-09-15T08:03:34.257Z,74.12
2022-09-15T08:06:02.555Z,73.55
2022-09-15T08:08:30.502Z,75.81
2022-09-15T08:10:57.383Z,79.55
2022-09-15T08:13:25.093Z,78.82
2022-09-15T08:15:52.566Z,82.24
2022-09-15T08:18:19.574Z,83.95
2022-09-15T08:20:46.542Z,82.29
2022-09-15T08:23:14.055Z,82.46
2022-09-15T08:25:40.916Z,84.75
2022-09-15T08:28:08.423Z,85.52
2022-09-15T08:30:35.454Z,83.97
2022-09-15T08:33:02.239Z,84.88
2022-09-15T08:35:30.090Z,87.06
2022-09-15T08:37:56.910Z,86.88
2022-09-15T08:40:33.078Z,86.88
2022-09-15T08:43:06.264Z,88.92
2022-09-15T08:45:46.342Z,91.26
2022-09-15T08:48:17.109Z,91.57
2022-09-15T08:50:50.081Z,91.31
2022-09-15T08:53:29.982Z,90.36
2022-09-15T08:56:00.355Z,90.71
2022-09-15T08:58:31.526Z,90.85
2022-09-15T09:00:58.256Z,89.46
2022-09-15T09:03:58.670Z,87.68
2022-09-15T09:06:52.758Z,87.51
2022-09-15T09:09:38.470Z,87.24
2022-09-15T09:12:14.496Z,85.21
2022-09-15T09:14:47.311Z,87.13
2022-09-15T09:17:29.650Z,88.87
2022-09-15T09:20:22.919Z,88.99
2022-09-15T09:22:53.316Z,86.03
2022-09-15T09:25:27.725Z,84.97
2022-09-15T09:27:58.360Z,84.77
2022-09-15T09:30:27.882Z,84.59
2022-09-15T09:33:03.055Z,85.53
2022-09-15T09:35:41.540Z,86.87
2022-09-15T09:38:10.210Z,87.71
2022-09-15T09:40:40.530Z,87.41
2022-09-15T09:43:08.811Z,85.19
2022-09-15T09:45:35.887Z,84.82
2022-09-15T09:48:15.404Z,85.61
2022-09-15T09:50:43.673Z,87.29
2022-09-15T09:53:26.296Z,87.55
2022-09-15T09:55:55.334Z,89.41
2022-09-15T09:58:24.215Z,91.37
2022-09-15T10:00:53.529Z,92.65
2022-09-15T10:03:26.217Z,92.39
2022-09-15T10:06:06.523Z,93.67
2022-09-15T10:08:36.064Z,92.36
2022-09-15T10:11:06.239Z,90.94
2022-09-15T10:13:35.616Z,89.72
2022-09-15T10:16:06.279Z,88.75
2022-09-15T10:18:36.552Z,88.41
2022-09-15T10:21:09.556Z,87.16
2022-09-15T10:23:36.807Z,86.30
2022-09-15T10:26:30.025Z,87.23
2022-09-15T10:29:15.866Z,87.26
2022-09-15T10:31:44.605Z,86.72
2022-09-15T10:34:31.147Z,88.68
2022-09-15T10:37:08.531Z,93.81
2022-09-15T10:39:51.731Z,96.34
2022-09-15T10:42:44.863Z,100.00
2022-09-15T10:45:36.883Z,100.00
2022-09-15T10:48:10.227Z,100.00
2022-09-15T10:50:49.869Z,100.00
2022-09-15T10:53:34.664Z,100.00
2022-09-15T10:56:17.800Z,100.00
2022-09-15T10:59:03.709Z,100.00
2022-09-15T11:01:30.729Z,100.00
2022-09-15T11:04:13.371Z,100.00
2022-09-15T11:06:50.488Z,100.00
2022-09-15T11:09:26.002Z,100.00
2022-09-15T11:12:04.828Z,100.00
2022-09-15T11:15:03.911Z,100.00
2022-09-15T11:17:31.083Z,100.00
2022-09-15T11:20:00.844Z,100.00
2022-09-15T11:22:33.380Z,100.00
2022-09-15T11:25:17.655Z,100.00
2022-09-15T11:27:55.852Z,100.00
2022-09-15T11:30:25.557Z,100.00
2022-09-15T11:33:13.639Z,100.00
2022-09-15T11:35:45.224Z,100.00
2022-09-15T11:38:13.070Z,100.00
2022-09-15T11:40:48.297Z,100.00
2022-09-15T11:43:24.159Z,100.00
2022-09-15T11:45:56.561Z,100.00
2022-09-15T11:48:48.170Z,100.00
2022-09-15T11:51:21.576Z,100.00
2022-09-15T11:53:58.978Z,100.00
2022-09-15T11:56:42.031Z,100.00
2022-09-15T11:59:41.856Z,100.00
2022-09-15T12:02:21.962Z,100.00
2022-09-15T12:05:03.322Z,100.00
2022-09-15T12:07:32.979Z,100.00
2022-09-15T12:10:07.308Z,100.00
2022-09-15T12:12:35.921Z,100.00
2022-09-15T12:15:03.634Z,100.00
2022-09-15T12:17:41.962Z,100.00
2022-09-15T12:20:26.781Z,100.00
2022-09-15T12:23:12.186Z,100.00
2022-09-15T12:26:14.342Z,100.00
2022-09-15T12:28:47.095Z,100.00
2022-09-15T12:31:14.479Z,100.00
2022-09-15T12:34:13.090Z,100.00
2022-09-15T12:36:52.483Z,100.00
2022-09-15T12:39:38.063Z,100.00
2022-09-15T12:42:14.073Z,100.00
2022-09-15T12:44:49.899Z,100.00
2022-09-15T12:47:37.977Z,100.00
2022-09-15T12:50:08.370Z,100.00
2022-09-15T12:52:51.614Z,100.00
2022-09-15T12:55:23.469Z,100.00
2022-09-15T12:58:00.204Z,100.00
2022-09-15T13:00:34.792Z,100.00
2022-09-15T13:03:03.994Z,100.00
2022-09-15T13:05:43.061Z,100.00
2022-09-15T13:08:15.394Z,100.00
2022-09-15T13:10:59.839Z,100.00
2022-09-15T13:13:43.959Z,100.00
2022-09-15T13:16:17.009Z,100.00
2022-09-15T13:18:47.103Z,100.00
2022-09-15T13:21:23.111Z,100.00
2022-09-15T13:23:57.177Z,100.00
2022-09-15T13:26:29.618Z,100.00
2022-09-15T13:29:00.308Z,100.00
2022-09-15T13:31:41.213Z,100.00
2022-09-15T13:40:52.022Z,100.00
2022-09-15T13:44:10.187Z,100.00
2022-09-15T13:47:25.949Z,100.00
2022-09-15T13:50:24.873Z,100.00
2022-09-15T13:52:57.781Z,100.00
2022-09-15T13:55:27.823Z,100.00
2022-09-15T14:00:54.972Z,98.49
2022-09-15T14:03:27.803Z,98.41
2022-09-15T14:06:00.437Z,95.00
2022-09-15T14:08:38.212Z,91.73
2022-09-15T14:11:13.159Z,94.61
2022-09-15T14:13:49.122Z,92.84
2022-09-15T14:16:26.401Z,93.08
2022-09-15T14:18:57.724Z,94.70
2022-09-15T14:21:28.410Z,95.91
2022-09-15T14:23:57.819Z,96.13
2022-09-15T14:26:28.777Z,95.53
2022-09-15T14:28:58.811Z,96.49
2022-09-15T14:31:37.968Z,97.51
2022-09-15T14:34:15.620Z,99.01
2022-09-15T14:36:43.062Z,99.83
2022-09-15T14:39:12.877Z,100.00
2022-09-15T14:41:40.264Z,100.00
2022-09-15T14:56:05.652Z,99.65
2022-09-15T14:58:41.809Z,100.00
2022-09-15T15:01:46.601Z,100.00
2022-09-15T15:04:35.207Z,100.00
2022-09-15T15:07:29.076Z,100.00
2022-09-15T15:10:00.546Z,100.00
2022-09-15T15:12:34.484Z,100.00
2022-09-15T15:15:01.954Z,100.00
2022-09-15T15:17:38.540Z,100.00
2022-09-15T15:20:08.957Z,100.00
2022-09-15T15:22:37.409Z,100.00
2022-09-15T15:25:28.307Z,100.00
2022-09-15T15:28:00.143Z,100.00
2022-09-15T15:30:30.835Z,100.00
2022-09-15T15:33:12.698Z,100.00
2022-09-15T15:35:42.000Z,100.00
2022-09-15T15:38:17.067Z,100.00
2022-09-15T15:40:45.631Z,100.00
2022-09-15T15:43:15.558Z,100.00
2022-09-15T15:45:58.433Z,100.00
2022-09-15T15:48:27.482Z,100.00
2022-09-15T15:50:55.235Z,100.00
2022-09-15T15:53:23.734Z,100.00
2022-09-15T15:55:50.896Z,100.00
2022-09-15T15:58:17.846Z,100.00
2022-09-15T16:00:47.610Z,100.00
2022-09-15T16:03:16.452Z,100.00
2022-09-15T16:05:49.508Z,100.00
2022-09-15T16:08:30.209Z,100.00
2022-09-15T16:10:57.948Z,100.00
2022-09-15T16:13:25.960Z,100.00
2022-09-15T16:15:53.930Z,100.00
2022-09-15T16:18:21.537Z,100.00
2022-09-15T16:20:48.598Z,100.00
2022-09-15T16:23:22.454Z,100.00
2022-09-15T16:26:01.924Z,100.00
2022-09-15T16:28:28.924Z,100.00
2022-09-15T16:30:57.237Z,100.00
2022-09-15T16:33:25.122Z,100.00
2022-09-15T16:36:08.979Z,100.00
2022-09-15T16:38:36.911Z,100.00
2022-09-15T16:41:10.959Z,100.00
2022-09-15T16:43:38.044Z,100.00
2022-09-15T16:46:06.306Z,100.00
2022-09-15T16:48:34.284Z,100.00
2022-09-15T16:51:23.057Z,100.00
2022-09-15T16:53:49.001Z,100.00
2022-09-15T16:56:16.180Z,100.00
2022-09-15T16:58:44.095Z,100.00
2022-09-15T17:01:17.825Z,100.00
2022-09-15T17:03:45.039Z,100.00
2022-09-15T17:06:14.733Z,100.00
2022-09-15T17:08:41.732Z,100.00
2022-09-15T17:11:16.627Z,100.00
2022-09-15T17:13:44.519Z,100.00
2022-09-15T17:16:14.992Z,100.00
2022-09-15T17:18:42.063Z,100.00
2022-09-15T17:21:12.842Z,100.00
2022-09-15T17:23:43.426Z,100.00
2022-09-15T17:26:13.576Z,100.00
2022-09-15T17:28:42.361Z,100.00
2022-09-15T17:31:15.888Z,100.00
2022-09-15T17:33:43.579Z,100.00
2022-09-15T17:36:11.224Z,100.00
2022-09-15T17:38:40.752Z,100.00
2022-09-15T17:41:14.758Z,100.00
2022-09-15T17:43:42.041Z,100.00
2022-09-15T17:46:09.239Z,100.00
2022-09-15T17:48:39.231Z,100.00
2022-09-15T17:51:07.202Z,100.00
2022-09-15T17:53:34.299Z,100.00
2022-09-15T17:56:01.427Z,100.00
2022-09-15T17:58:30.036Z,100.00
2022-09-15T18:00:57.880Z,100.00
2022-09-15T18:03:28.120Z,100.00
2022-09-15T18:06:00.801Z,100.00
2022-09-15T18:08:28.085Z,100.00
2022-09-15T18:10:55.737Z,100.00
2022-09-15T18:13:26.962Z,100.00
2022-09-15T18:15:54.550Z,100.00
2022-09-15T18:18:24.123Z,100.00
2022-09-15T18:20:53.180Z,100.00
2022-09-15T18:23:22.587Z,100.00
2022-09-15T18:25:50.830Z,100.00
2022-09-15T18:28:18.732Z,100.00
2022-09-15T18:30:48.797Z,100.00
2022-09-15T18:33:22.969Z,100.00
2022-09-15T18:35:52.473Z,100.00
2022-09-15T18:38:19.828Z,100.00
2022-09-15T18:40:49.167Z,100.00
2022-09-15T18:43:17.210Z,100.00
2022-09-15T18:45:44.213Z,100.00
2022-09-15T18:48:13.043Z,100.00
2022-09-15T18:50:41.906Z,100.00
2022-09-15T18:53:09.260Z,100.00
2022-09-15T18:55:36.279Z,100.00
2022-09-15T18:58:03.265Z,100.00
2022-09-15T19:00:31.559Z,100.00
2022-09-15T19:03:00.477Z,100.00
2022-09-15T19:05:28.907Z,100.00
2022-09-15T19:07:56.681Z,100.00
2022-09-15T19:10:24.448Z,100.00
2022-09-15T19:12:51.571Z,100.00
2022-09-15T19:15:23.665Z,100.00
2022-09-15T19:17:50.981Z,100.00
2022-09-15T19:20:18.278Z,100.00
2022-09-15T19:22:46.146Z,100.00
2022-09-15T19:25:13.565Z,100.00
2022-09-15T19:27:41.631Z,100.00
2022-09-15T19:30:12.385Z,100.00
2022-09-15T19:32:40.241Z,100.00
2022-09-15T19:35:08.817Z,100.00
2022-09-15T19:37:38.074Z,100.00
2022-09-15T19:40:09.084Z,100.00
2022-09-15T19:42:38.204Z,100.00
2022-09-15T19:45:06.052Z,100.00
2022-09-15T19:47:32.871Z,100.00
2022-09-15T19:50:00.028Z,100.00
2022-09-15T19:52:27.707Z,100.00
2022-09-15T19:54:54.544Z,100.00
2022-09-15T19:57:21.585Z,100.00
2022-09-15T19:59:48.452Z,100.00
2022-09-15T20:02:15.569Z,100.00
2022-09-15T20:04:43.458Z,100.00
2022-09-15T20:07:10.461Z,100.00
2022-09-15T20:09:37.352Z,100.00
2022-09-15T20:12:04.735Z,100.00
2022-09-15T20:14:31.722Z,100.00
2022-09-15T20:17:01.162Z,100.00
2022-09-15T20:19:29.584Z,100.00
2022-09-15T20:21:56.865Z,100.00
2022-09-15T20:24:24.405Z,100.00
2022-09-15T20:26:53.065Z,100.00
2022-09-15T20:29:20.789Z,100.00
2022-09-15T20:31:48.118Z,100.00
2022-09-15T20:34:15.701Z,100.00
2022-09-15T20:36:43.662Z,100.00
2022-09-15T20:39:14.671Z,100.00
2022-09-15T20:41:45.215Z,100.00
2022-09-15T20:44:12.424Z,100.00
2022-09-15T20:46:39.717Z,100.00
2022-09-15T20:49:07.516Z,100.00
2022-09-15T20:51:34.698Z,100.00
2022-09-15T20:54:03.808Z,100.00
2022-09-15T20:56:31.780Z,100.00
2022-09-15T20:59:00.565Z,100.00
2022-09-15T21:01:38.554Z,100.00
2022-09-15T21:04:08.714Z,100.00
2022-09-15T21:06:36.053Z,100.00
2022-09-15T21:09:04.641Z,100.00
2022-09-15T21:11:32.124Z,100.00
2022-09-15T21:13:59.046Z,100.00
2022-09-15T21:16:28.425Z,100.00
2022-09-15T21:18:58.059Z,100.00
2022-09-15T21:21:27.509Z,100.00
2022-09-15T21:23:56.522Z,100.00
2022-09-15T21:26:27.573Z,100.00
2022-09-15T21:28:56.332Z,100.00
2022-09-15T21:31:26.272Z,100.00
2022-09-15T21:33:54.527Z,100.00
2022-09-15T21:36:30.128Z,100.00
2022-09-15T21:38:59.090Z,100.00
2022-09-15T21:41:30.117Z,100.00
2022-09-15T21:43:59.180Z,100.00
2022-09-15T21:46:29.037Z,100.00
2022-09-15T21:48:57.689Z,100.00
2022-09-15T21:51:26.433Z,100.00
2022-09-15T21:53:55.053Z,100.00
2022-09-15T21:56:22.872Z,100.00
2022-09-15T21:58:49.796Z,100.00
2022-09-15T22:01:20.974Z,100.00
2022-09-15T22:03:51.545Z,100.00
2022-09-15T22:06:20.804Z,100.00
2022-09-15T22:08:47.964Z,100.00
2022-09-15T22:11:15.348Z,100.00
2022-09-15T22:13:44.682Z,100.00
2022-09-15T22:16:18.358Z,100.00
2022-09-15T22:18:46.164Z,100.00
2022-09-15T22:21:22.494Z,100.00
2022-09-15T22:23:51.062Z,100.00
2022-09-15T22:26:20.696Z,100.00
2022-09-15T22:28:48.243Z,100.00
2022-09-15T22:31:17.210Z,100.00
2022-09-15T22:33:45.206Z,100.00
2022-09-15T22:36:13.985Z,100.00
2022-09-15T22:38:41.501Z,100.00
2022-09-15T22:41:12.017Z,100.00
2022-09-15T22:43:40.197Z,100.00
2022-09-15T22:46:07.891Z,100.00
2022-09-15T22:48:37.493Z,100.00
2022-09-15T22:51:07.324Z,100.00
2022-09-15T22:53:34.850Z,100.00
2022-09-15T22:56:14.135Z,100.00
2022-09-15T22:58:46.463Z,100.00
2022-09-15T23:01:18.838Z,100.00
2022-09-15T23:03:56.743Z,100.00
2022-09-15T23:06:25.314Z,100.00
2022-09-15T23:08:54.722Z,100.00
2022-09-15T23:11:22.298Z,100.00
2022-09-15T23:13:49.196Z,100.00
2022-09-15T23:16:17.311Z,100.00
2022-09-15T23:18:46.033Z,100.00
2022-09-15T23:21:13.679Z,100.00
2022-09-15T23:23:43.358Z,100.00
2022-09-15T23:26:12.557Z,100.00
2022-09-15T23:28:40.306Z,100.00
2022-09-15T23:31:10.248Z,100.00
2022-09-15T23:33:37.131Z,100.00
2022-09-15T23:36:07.031Z,100.00
2022-09-15T23:38:38.834Z,100.00
2022-09-15T23:41:06.934Z,100.00
2022-09-15T23:43:34.587Z,100.00
2022-09-15T23:46:02.553Z,100.00
2022-09-15T23:48:31.793Z,100.00
2022-09-15T23:50:58.767Z,100.00
2022-09-15T23:53:25.860Z,100.00
2022-09-15T23:55:52.850Z,100.00
2022-09-15T23:58:19.787Z,100.00
